Time;durP1;ratioP1;P1;durP2;ratioP2;P2;SDS_P1;SDS_P2;PMS_P1;PMS_P2;Temp;Humidity;BMP_temperature;BMP_pressure;BME280_temperature;BME280_humidity;BME280_pressure;Samples;Min_cycle;Max_cycle;Signal;HPM_P1;HPM_P2
2023/04/26 00:00:47;;;;;;;0.40;0.40;;;7.70;99.90;;;;;;4161506;28;20091;-72
2023/04/26 00:02:48;;;;;;;0.80;0.60;;;7.70;99.90;;;;;;4163725;28;20033;-71
2023/04/26 00:04:57;;;;;;;1.00;0.40;;;7.70;99.90;;;;;;4162437;28;20021;-70
2023/04/26 00:06:59;;;;;;;0.40;0.40;;;7.70;99.90;;;;;;4144372;28;20089;-66
2023/04/26 00:09:00;;;;;;;0.40;0.40;;;7.70;99.90;;;;;;4161882;28;20115;-70
2023/04/26 00:11:01;;;;;;;0.30;0.30;;;7.70;99.90;;;;;;4162998;28;20096;-68
2023/04/26 00:13:02;;;;;;;0.50;0.40;;;7.70;99.90;;;;;;4162174;28;20420;-71
2023/04/26 00:15:04;;;;;;;0.40;0.40;;;7.70;99.90;;;;;;4163723;28;20087;-70
2023/04/26 00:17:05;;;;;;;0.40;0.30;;;7.70;99.90;;;;;;4160776;28;20111;-72
2023/04/26 00:19:06;;;;;;;0.40;0.40;;;7.70;99.90;;;;;;4162947;28;20087;-68
2023/04/26 00:21:07;;;;;;;0.40;0.40;;;7.60;99.90;;;;;;4162977;28;20034;-69
2023/04/26 00:23:09;;;;;;;0.47;0.20;;;7.60;99.90;;;;;;4162222;28;20520;-72
2023/04/26 00:25:11;;;;;;;0.40;0.40;;;7.60;99.90;;;;;;4163298;28;20037;-72
2023/04/26 00:27:12;;;;;;;0.50;0.50;;;7.60;99.90;;;;;;4161697;28;20496;-71
2023/04/26 00:29:13;;;;;;;0.87;0.50;;;7.60;99.90;;;;;;4162359;28;20123;-70
2023/04/26 00:31:15;;;;;;;0.30;0.30;;;7.60;99.90;;;;;;4161975;28;20087;-67
2023/04/26 00:33:16;;;;;;;0.40;0.40;;;7.60;99.90;;;;;;4145390;28;20092;-68
2023/04/26 00:35:18;;;;;;;0.60;0.60;;;7.50;99.90;;;;;;4161237;28;20062;-71
2023/04/26 00:37:20;;;;;;;0.70;0.70;;;7.50;99.90;;;;;;4162856;28;20038;-70
2023/04/26 00:39:21;;;;;;;0.43;0.40;;;7.50;99.90;;;;;;4161083;28;20521;-72
2023/04/26 00:41:23;;;;;;;1.80;0.70;;;7.50;99.90;;;;;;4163220;28;20026;-69
2023/04/26 00:43:24;;;;;;;1.07;0.97;;;7.40;99.90;;;;;;4161807;28;20075;-69
2023/04/26 00:45:26;;;;;;;1.20;0.80;;;7.50;99.90;;;;;;4162626;28;20029;-69
2023/04/26 00:47:29;;;;;;;0.80;0.80;;;7.40;99.90;;;;;;4160968;28;20088;-64
2023/04/26 00:49:31;;;;;;;1.20;1.07;;;7.40;99.90;;;;;;4161767;28;20088;-70
2023/04/26 00:51:32;;;;;;;1.03;0.80;;;7.40;99.90;;;;;;4144448;28;20129;-67
2023/04/26 00:53:34;;;;;;;0.73;0.70;;;7.40;99.90;;;;;;4162059;28;20068;-68
2023/04/26 00:55:35;;;;;;;1.70;0.93;;;7.30;99.90;;;;;;4162085;28;20037;-63
2023/04/26 00:57:37;;;;;;;1.33;1.13;;;7.30;99.90;;;;;;4155417;28;20052;-63
2023/04/26 00:59:38;;;;;;;0.83;0.83;;;7.30;99.90;;;;;;4146831;28;20037;-62
2023/04/26 01:01:41;;;;;;;1.47;1.10;;;7.30;99.90;;;;;;4145205;28;20084;-71
2023/04/26 01:03:44;;;;;;;3.07;0.70;;;7.30;99.90;;;;;;4160872;28;20083;-69
2023/04/26 01:05:45;;;;;;;1.23;1.00;;;7.20;99.90;;;;;;4159422;28;20080;-68
2023/04/26 01:07:47;;;;;;;1.10;1.00;;;7.20;99.90;;;;;;4158625;28;20030;-68
2023/04/26 01:09:48;;;;;;;1.10;1.00;;;7.20;99.90;;;;;;4157329;28;20042;-72
2023/04/26 01:11:51;;;;;;;1.23;1.13;;;7.10;99.90;;;;;;4161746;28;20087;-69
2023/04/26 01:13:52;;;;;;;1.60;0.93;;;7.10;99.90;;;;;;4143711;28;20084;-70
2023/04/26 01:15:54;;;;;;;0.83;0.83;;;7.10;99.90;;;;;;4162842;28;20449;-63
2023/04/26 01:17:56;;;;;;;1.60;1.23;;;7.10;99.90;;;;;;4161179;28;20493;-64
2023/04/26 01:19:57;;;;;;;1.73;1.10;;;7.10;99.90;;;;;;4144425;28;20096;-67
2023/04/26 01:21:58;;;;;;;3.97;1.47;;;7.10;99.90;;;;;;4161389;28;20037;-68
2023/04/26 01:24:00;;;;;;;1.67;1.40;;;7.00;99.90;;;;;;4161830;28;20092;-62
2023/04/26 01:26:01;;;;;;;4.47;1.30;;;7.00;99.90;;;;;;4161936;28;20454;-65
2023/04/26 01:28:02;;;;;;;1.40;1.10;;;7.00;99.90;;;;;;4161348;28;20025;-65
2023/04/26 01:30:04;;;;;;;1.73;1.40;;;6.90;99.90;;;;;;4161412;28;20049;-65
2023/04/26 01:32:06;;;;;;;1.30;1.20;;;6.90;99.90;;;;;;4144805;28;20115;-66
2023/04/26 01:34:07;;;;;;;1.60;1.50;;;6.80;99.90;;;;;;4160771;28;20045;-66
2023/04/26 01:36:11;;;;;;;1.50;1.40;;;6.80;99.90;;;;;;4161001;28;20045;-67
2023/04/26 01:38:13;;;;;;;2.23;1.53;;;6.80;99.90;;;;;;4161831;28;20030;-65
2023/04/26 01:40:14;;;;;;;1.80;1.70;;;6.80;99.90;;;;;;4161055;28;20017;-66
2023/04/26 01:42:15;;;;;;;1.93;1.60;;;6.80;99.90;;;;;;4161216;28;20127;-67
2023/04/26 01:44:17;;;;;;;2.70;1.97;;;6.80;99.90;;;;;;4161145;28;20383;-68
2023/04/26 01:46:18;;;;;;;2.43;1.83;;;6.80;99.90;;;;;;4162112;28;20123;-69
2023/04/26 01:48:19;;;;;;;1.97;1.77;;;6.80;99.90;;;;;;4160346;28;20041;-67
2023/04/26 01:50:20;;;;;;;1.80;1.67;;;6.80;99.90;;;;;;4162153;28;20029;-64
2023/04/26 01:52:22;;;;;;;2.77;1.53;;;6.70;99.90;;;;;;4161130;28;20095;-69
2023/04/26 01:54:23;;;;;;;2.13;2.00;;;6.70;99.90;;;;;;4161119;28;20046;-70
2023/04/26 01:56:24;;;;;;;2.43;2.13;;;6.70;99.90;;;;;;4159447;28;20087;-65
2023/04/26 01:58:25;;;;;;;1.80;1.70;;;6.70;99.90;;;;;;4153063;28;20038;-68
2023/04/26 02:00:28;;;;;;;2.50;2.00;;;6.70;99.90;;;;;;4158212;28;20160;-68
2023/04/26 02:02:29;;;;;;;2.27;1.90;;;6.60;99.90;;;;;;4150064;28;20095;-69
2023/04/26 02:04:30;;;;;;;2.03;1.83;;;6.60;99.90;;;;;;4128133;28;20653;-70
2023/04/26 02:06:32;;;;;;;2.07;1.90;;;6.50;99.90;;;;;;4145393;28;20111;-65
2023/04/26 02:08:33;;;;;;;3.10;1.80;;;6.50;99.90;;;;;;4145598;28;20441;-68
2023/04/26 02:10:36;;;;;;;2.87;2.40;;;6.50;99.90;;;;;;4144404;28;20034;-67
2023/04/26 02:12:37;;;;;;;3.93;1.83;;;6.50;99.90;;;;;;4145153;28;20054;-68
2023/04/26 02:14:38;;;;;;;2.20;2.00;;;6.40;99.90;;;;;;4144524;28;20037;-66
2023/04/26 02:16:39;;;;;;;3.47;2.43;;;6.40;99.90;;;;;;4145026;28;20113;-70
2023/04/26 02:18:40;;;;;;;3.87;3.23;;;6.40;99.90;;;;;;4147254;28;20363;-70
2023/04/26 02:20:43;;;;;;;4.60;2.27;;;6.40;99.90;;;;;;4161450;28;20046;-71
2023/04/26 02:22:44;;;;;;;4.73;2.80;;;6.50;99.90;;;;;;4156559;28;20033;-66
2023/04/26 02:24:45;;;;;;;3.47;2.60;;;6.50;99.90;;;;;;4151440;28;20502;-71
2023/04/26 02:26:46;;;;;;;2.43;2.23;;;6.50;99.90;;;;;;4153208;28;20050;-71
2023/04/26 02:28:47;;;;;;;2.53;2.20;;;6.40;99.90;;;;;;4161270;28;20037;-70
2023/04/26 02:30:48;;;;;;;2.57;2.23;;;6.50;99.90;;;;;;4161304;28;20076;-68
2023/04/26 02:32:55;;;;;;;2.63;2.17;;;6.40;99.90;;;;;;4156918;28;20152;-72
2023/04/26 02:34:56;;;;;;;3.03;2.30;;;6.50;99.90;;;;;;4159020;28;20083;-71
2023/04/26 02:36:57;;;;;;;3.07;2.83;;;6.50;99.90;;;;;;4159716;28;20045;-65
2023/04/26 02:38:59;;;;;;;2.50;2.30;;;6.50;99.90;;;;;;4161017;28;20056;-66
2023/04/26 02:41:01;;;;;;;3.97;2.80;;;6.50;99.90;;;;;;4159463;28;20084;-72
2023/04/26 02:43:02;;;;;;;2.90;2.60;;;6.50;99.90;;;;;;4161540;28;20030;-71
2023/04/26 02:45:04;;;;;;;5.53;3.37;;;6.50;99.90;;;;;;4151791;28;20380;-70
2023/04/26 02:47:05;;;;;;;7.53;4.37;;;6.40;99.90;;;;;;4145401;28;20433;-69
2023/04/26 02:49:06;;;;;;;4.70;4.10;;;6.40;99.90;;;;;;4143802;28;20049;-70
2023/04/26 02:51:08;;;;;;;3.33;3.00;;;6.40;99.90;;;;;;4144902;28;20049;-72
2023/04/26 02:53:09;;;;;;;3.17;2.60;;;6.30;99.90;;;;;;4144048;28;20092;-71
2023/04/26 02:55:10;;;;;;;8.50;3.47;;;6.30;99.90;;;;;;4144911;28;20045;-73
2023/04/26 02:57:11;;;;;;;4.03;3.23;;;6.30;99.90;;;;;;4143668;28;20100;-70
2023/04/26 02:59:12;;;;;;;3.70;2.83;;;6.30;99.90;;;;;;4144623;28;20060;-69
2023/04/26 03:01:14;;;;;;;3.10;2.80;;;6.30;99.90;;;;;;4146655;28;20092;-71
2023/04/26 03:03:15;;;;;;;3.37;3.07;;;6.30;99.90;;;;;;4151033;28;20470;-73
2023/04/26 03:05:16;;;;;;;4.17;2.93;;;6.30;99.90;;;;;;4152839;28;20092;-71
2023/04/26 03:07:17;;;;;;;4.07;3.10;;;6.30;99.90;;;;;;4156204;28;20588;-72
2023/04/26 03:09:18;;;;;;;4.47;3.60;;;6.30;99.90;;;;;;4161007;28;20062;-72
2023/04/26 03:11:19;;;;;;;4.70;3.40;;;6.30;99.90;;;;;;4162530;28;20025;-71
2023/04/26 03:13:24;;;;;;;4.50;3.47;;;6.20;99.90;;;;;;4164178;28;20037;-72
2023/04/26 03:15:25;;;;;;;4.73;3.63;;;6.30;99.90;;;;;;4162931;28;20539;-67
2023/04/26 03:17:26;;;;;;;4.40;3.30;;;6.20;99.90;;;;;;4164505;28;20092;-66
2023/04/26 03:19:27;;;;;;;3.50;2.90;;;6.20;99.90;;;;;;4154845;28;20030;-71
2023/04/26 03:21:28;;;;;;;3.97;3.43;;;6.20;99.90;;;;;;4147914;28;20497;-69
2023/04/26 03:23:30;;;;;;;4.57;2.93;;;6.20;99.90;;;;;;4146386;28;20033;-64
2023/04/26 03:25:32;;;;;;;5.17;3.63;;;6.10;99.90;;;;;;4147840;28;20072;-70
2023/04/26 03:27:33;;;;;;;6.33;3.97;;;6.10;99.90;;;;;;4146731;28;20030;-71
2023/04/26 03:29:34;;;;;;;5.73;4.53;;;6.10;99.90;;;;;;4146980;28;20041;-72
2023/04/26 03:31:35;;;;;;;4.87;3.77;;;6.10;99.90;;;;;;4146886;28;20108;-70
2023/04/26 03:33:37;;;;;;;4.53;3.70;;;6.10;99.90;;;;;;4146934;28;20030;-70
2023/04/26 03:35:38;;;;;;;8.33;3.73;;;6.10;99.90;;;;;;4147145;28;20076;-69
2023/04/26 03:37:39;;;;;;;5.30;3.93;;;6.00;99.90;;;;;;4146573;28;20429;-73
2023/04/26 03:39:40;;;;;;;5.97;4.20;;;6.00;99.90;;;;;;4147629;28;20030;-69
2023/04/26 03:41:41;;;;;;;4.53;3.43;;;6.10;99.90;;;;;;4147557;28;20029;-69
2023/04/26 03:43:42;;;;;;;4.53;4.03;;;6.10;99.90;;;;;;4147637;28;20474;-67
2023/04/26 03:45:47;;;;;;;5.87;4.30;;;6.10;99.90;;;;;;4155719;28;20029;-64
2023/04/26 03:47:48;;;;;;;6.33;3.80;;;6.10;99.90;;;;;;4155328;28;20092;-74
2023/04/26 03:49:49;;;;;;;5.33;4.30;;;6.00;99.90;;;;;;4146014;28;20597;-73
2023/04/26 03:51:51;;;;;;;4.10;3.70;;;6.00;99.90;;;;;;4152138;28;20473;-70
2023/04/26 03:53:52;;;;;;;5.23;4.10;;;6.10;99.90;;;;;;4162492;28;20033;-72
2023/04/26 03:55:53;;;;;;;5.20;4.20;;;6.00;99.90;;;;;;4163069;28;20469;-63
2023/04/26 03:57:54;;;;;;;5.37;4.03;;;6.00;99.90;;;;;;4156280;28;20079;-72
2023/04/26 03:59:55;;;;;;;5.67;3.90;;;6.10;99.90;;;;;;4148368;28;20453;-67
2023/04/26 04:01:57;;;;;;;4.40;3.37;;;6.10;99.90;;;;;;4145727;28;20034;-62
2023/04/26 04:03:58;;;;;;;4.20;3.80;;;6.10;99.90;;;;;;4146566;28;20077;-74
2023/04/26 04:05:59;;;;;;;5.33;3.70;;;6.10;99.90;;;;;;4146162;28;20108;-73
2023/04/26 04:08:01;;;;;;;5.13;3.30;;;6.00;99.90;;;;;;4146290;28;20034;-71
2023/04/26 04:10:02;;;;;;;4.37;3.43;;;6.10;99.90;;;;;;4147759;28;20438;-73
2023/04/26 04:12:03;;;;;;;5.57;3.40;;;6.10;99.90;;;;;;4145368;28;20034;-67
2023/04/26 04:14:06;;;;;;;4.93;3.40;;;6.10;99.90;;;;;;4145879;28;20042;-69
2023/04/26 04:16:09;;;;;;;4.37;3.23;;;6.10;99.90;;;;;;4154302;28;20044;-62
2023/04/26 04:18:10;;;;;;;5.23;3.37;;;6.10;99.90;;;;;;4163265;28;20107;-66
2023/04/26 04:20:12;;;;;;;4.30;2.90;;;6.20;99.90;;;;;;4158016;28;20045;-62
2023/04/26 04:22:13;;;;;;;3.17;2.87;;;6.20;99.90;;;;;;4145623;28;20057;-62
2023/04/26 04:24:14;;;;;;;4.57;2.60;;;6.10;99.90;;;;;;4145650;28;20030;-68
2023/04/26 04:26:16;;;;;;;2.70;2.40;;;6.20;99.90;;;;;;4149243;28;20390;-65
2023/04/26 04:28:17;;;;;;;5.43;3.30;;;6.20;99.90;;;;;;4143773;28;20084;-69
2023/04/26 04:30:18;;;;;;;4.73;3.33;;;6.20;99.90;;;;;;4160143;28;20565;-67
2023/04/26 04:32:22;;;;;;;4.37;3.20;;;6.30;99.90;;;;;;4153887;28;20029;-71
2023/04/26 04:34:23;;;;;;;8.13;3.57;;;6.30;99.90;;;;;;4158170;28;20532;-69
2023/04/26 04:36:25;;;;;;;5.07;3.40;;;6.30;99.90;;;;;;4161448;28;20057;-64
2023/04/26 04:38:26;;;;;;;3.47;3.17;;;6.30;99.90;;;;;;4160972;28;20548;-69
2023/04/26 04:40:27;;;;;;;7.03;3.53;;;6.30;99.90;;;;;;4162628;28;20033;-62
2023/04/26 04:42:28;;;;;;;5.00;2.93;;;6.30;99.90;;;;;;4161222;28;20045;-77
2023/04/26 04:44:30;;;;;;;3.47;2.53;;;6.30;99.90;;;;;;4162518;28;20033;-75
2023/04/26 04:46:31;;;;;;;3.27;2.60;;;6.30;99.90;;;;;;4161245;28;20033;-75
2023/04/26 04:48:32;;;;;;;3.73;2.40;;;6.30;99.90;;;;;;4162512;28;20083;-69
2023/04/26 04:50:34;;;;;;;2.87;2.67;;;6.30;99.90;;;;;;4161252;28;20030;-71
2023/04/26 04:52:35;;;;;;;3.37;2.67;;;6.30;99.90;;;;;;4162043;28;20041;-66
2023/04/26 04:54:37;;;;;;;3.70;2.27;;;6.40;99.90;;;;;;4160761;28;20096;-68
2023/04/26 04:56:38;;;;;;;5.23;2.83;;;6.30;99.90;;;;;;4159832;28;20083;-68
2023/04/26 04:58:39;;;;;;;3.37;2.20;;;6.30;99.90;;;;;;4160767;28;20448;-66
2023/04/26 05:00:40;;;;;;;4.53;2.27;;;6.30;99.90;;;;;;4152094;28;20572;-65
2023/04/26 05:02:42;;;;;;;2.83;2.20;;;6.40;99.90;;;;;;4151415;28;20079;-64
2023/04/26 05:04:43;;;;;;;6.07;2.23;;;6.40;99.90;;;;;;4153185;28;20092;-69
2023/04/26 05:06:44;;;;;;;2.10;1.90;;;6.40;99.90;;;;;;4159898;28;20021;-64
2023/04/26 05:08:45;;;;;;;2.30;2.00;;;6.40;99.90;;;;;;4150185;28;20392;-72
2023/04/26 05:10:47;;;;;;;2.00;1.87;;;6.40;99.90;;;;;;4152174;28;20116;-67
2023/04/26 05:12:48;;;;;;;3.63;2.53;;;6.40;99.90;;;;;;4158259;28;20452;-72
2023/04/26 05:14:49;;;;;;;2.17;1.97;;;6.40;99.90;;;;;;4160605;28;20932;-63
2023/04/26 05:16:50;;;;;;;2.30;1.90;;;6.40;99.90;;;;;;4149651;28;20099;-70
2023/04/26 05:18:51;;;;;;;2.33;2.03;;;6.40;99.90;;;;;;4162317;28;20033;-66
2023/04/26 05:20:52;;;;;;;2.23;1.80;;;6.50;99.90;;;;;;4159229;28;20037;-68
2023/04/26 05:22:53;;;;;;;4.30;2.10;;;6.50;99.90;;;;;;4143284;28;20046;-66
2023/04/26 05:24:54;;;;;;;2.40;2.10;;;6.50;99.90;;;;;;4161125;28;20132;-73
2023/04/26 05:26:57;;;;;;;3.27;2.30;;;6.50;99.90;;;;;;4162156;28;20087;-69
2023/04/26 05:28:58;;;;;;;3.50;2.07;;;6.50;99.90;;;;;;4160708;28;20033;-70
2023/04/26 05:31:02;;;;;;;3.03;2.63;;;6.60;99.90;;;;;;4161643;28;20053;-66
2023/04/26 05:33:04;;;;;;;5.60;2.40;;;6.60;99.90;;;;;;4160153;28;20022;-67
2023/04/26 05:35:07;;;;;;;4.33;2.73;;;6.60;99.90;;;;;;4161636;28;20033;-73
2023/04/26 05:37:08;;;;;;;3.77;2.80;;;6.60;99.90;;;;;;4160463;28;20045;-65
2023/04/26 05:39:11;;;;;;;7.93;3.73;;;6.60;99.90;;;;;;4142916;28;20088;-68
2023/04/26 05:41:12;;;;;;;4.27;2.93;;;6.60;99.90;;;;;;4161081;28;20063;-61
2023/04/26 05:43:13;;;;;;;5.33;3.23;;;6.70;99.90;;;;;;4160918;28;20379;-67
2023/04/26 05:45:14;;;;;;;4.37;3.23;;;6.60;99.90;;;;;;4161295;28;20029;-61
2023/04/26 05:47:16;;;;;;;4.43;3.83;;;6.70;99.90;;;;;;4160702;28;20037;-62
2023/04/26 05:49:17;;;;;;;4.13;3.63;;;6.70;99.90;;;;;;4161768;28;20072;-72
2023/04/26 05:51:18;;;;;;;4.27;3.60;;;6.70;99.90;;;;;;4159560;28;20038;-68
2023/04/26 05:53:19;;;;;;;5.47;4.13;;;6.80;99.90;;;;;;4161592;28;20083;-72
2023/04/26 05:55:21;;;;;;;4.07;3.17;;;6.80;99.90;;;;;;4160604;28;20041;-73
2023/04/26 05:57:22;;;;;;;4.37;3.27;;;6.80;99.90;;;;;;4161767;28;20041;-69
2023/04/26 05:59:23;;;;;;;9.70;3.90;;;6.80;99.90;;;;;;4160420;28;20037;-69
2023/04/26 06:01:24;;;;;;;5.30;3.70;;;6.80;99.90;;;;;;4161596;28;20041;-75
2023/04/26 06:03:25;;;;;;;5.33;3.63;;;6.90;99.90;;;;;;4159631;28;20030;-60
2023/04/26 06:05:27;;;;;;;3.87;3.50;;;6.90;99.90;;;;;;4161295;28;20087;-67
2023/04/26 06:07:28;;;;;;;4.93;3.33;;;6.90;99.90;;;;;;4160636;28;20026;-70
2023/04/26 06:09:31;;;;;;;4.00;3.43;;;6.90;99.90;;;;;;4160674;28;20113;-64
2023/04/26 06:11:32;;;;;;;5.10;3.10;;;7.00;99.90;;;;;;4159718;28;20041;-71
2023/04/26 06:13:33;;;;;;;3.90;3.47;;;7.00;99.90;;;;;;4159889;28;20037;-62
2023/04/26 06:15:34;;;;;;;4.63;3.90;;;7.10;99.90;;;;;;4160813;28;20037;-61
2023/04/26 06:17:35;;;;;;;4.90;3.80;;;7.10;99.90;;;;;;4159996;28;20603;-61
2023/04/26 06:19:37;;;;;;;4.73;4.30;;;7.10;99.90;;;;;;4160486;28;20092;-70
2023/04/26 06:21:38;;;;;;;4.93;4.00;;;7.10;99.90;;;;;;4142084;28;20088;-73
2023/04/26 06:23:39;;;;;;;5.33;4.07;;;7.20;99.90;;;;;;4143552;28;20117;-60
2023/04/26 06:25:43;;;;;;;7.83;3.90;;;7.20;99.90;;;;;;4160137;28;20100;-62
2023/04/26 06:27:44;;;;;;;7.10;4.93;;;7.20;99.90;;;;;;4143202;28;20584;-66
2023/04/26 06:29:45;;;;;;;8.07;4.67;;;7.30;99.90;;;;;;4160228;28;20025;-71
2023/04/26 06:31:47;;;;;;;6.40;4.50;;;7.30;99.90;;;;;;4161356;28;20500;-73
2023/04/26 06:33:48;;;;;;;6.53;5.03;;;7.30;99.90;;;;;;4160177;28;20025;-74
2023/04/26 06:35:49;;;;;;;6.70;5.27;;;7.40;99.90;;;;;;4161209;28;20034;-76
2023/04/26 06:37:50;;;;;;;6.93;4.50;;;7.40;99.90;;;;;;4160259;28;20083;-70
2023/04/26 06:39:52;;;;;;;7.93;5.10;;;7.40;99.90;;;;;;4159976;28;20042;-72
2023/04/26 06:41:53;;;;;;;6.03;4.97;;;7.50;99.90;;;;;;4159904;28;20383;-61
2023/04/26 06:43:54;;;;;;;8.73;6.43;;;7.60;99.90;;;;;;4160306;28;20033;-73
2023/04/26 06:45:55;;;;;;;7.03;5.67;;;7.60;99.90;;;;;;4162800;28;20033;-73
2023/04/26 06:47:59;;;;;;;8.70;6.63;;;7.70;99.90;;;;;;4163744;28;20573;-71
2023/04/26 06:50:01;;;;;;;9.83;6.07;;;7.80;99.90;;;;;;4164225;28;20285;-64
2023/04/26 06:52:02;;;;;;;9.03;5.60;;;7.90;99.90;;;;;;4163308;28;20025;-70
2023/04/26 06:54:04;;;;;;;9.67;5.77;;;7.90;99.90;;;;;;4164180;28;20091;-73
2023/04/26 06:56:05;;;;;;;10.60;8.83;;;8.00;99.90;;;;;;4163263;28;20029;-68
2023/04/26 06:58:06;;;;;;;9.27;6.23;;;8.00;99.90;;;;;;4164288;28;20038;-61
2023/04/26 07:00:08;;;;;;;6.23;4.93;;;8.10;99.90;;;;;;4163296;28;20421;-73
2023/04/26 07:02:09;;;;;;;9.37;5.97;;;8.20;99.90;;;;;;4164313;28;20029;-65
2023/04/26 07:04:11;;;;;;;10.47;6.60;;;8.20;99.90;;;;;;4144935;28;20046;-71
2023/04/26 07:06:12;;;;;;;8.57;6.17;;;8.30;99.90;;;;;;4163961;28;20081;-71
2023/04/26 07:08:13;;;;;;;10.13;6.50;;;8.30;99.90;;;;;;4163355;28;20485;-72
2023/04/26 07:10:14;;;;;;;9.73;6.47;;;8.30;99.90;;;;;;4163626;28;20412;-67
2023/04/26 07:12:15;;;;;;;9.40;6.73;;;8.30;99.90;;;;;;4163561;28;20580;-72
2023/04/26 07:14:17;;;;;;;9.47;6.70;;;8.20;99.90;;;;;;4163280;28;20029;-61
2023/04/26 07:16:18;;;;;;;9.37;6.43;;;8.30;99.90;;;;;;4163433;28;20092;-74
2023/04/26 07:18:19;;;;;;;8.53;5.60;;;8.30;99.90;;;;;;4162739;28;20501;-71
2023/04/26 07:20:21;;;;;;;9.30;6.07;;;8.30;99.90;;;;;;4164018;28;20076;-69
2023/04/26 07:22:23;;;;;;;8.20;6.27;;;8.40;99.90;;;;;;4162586;28;20037;-61
2023/04/26 07:24:24;;;;;;;11.90;7.43;;;8.40;99.90;;;;;;4163379;28;20041;-73
2023/04/26 07:26:25;;;;;;;9.90;7.37;;;8.40;99.90;;;;;;4144516;28;20416;-71
2023/04/26 07:28:27;;;;;;;9.83;6.40;;;8.50;99.90;;;;;;4163416;28;20367;-72
2023/04/26 07:30:28;;;;;;;10.90;6.70;;;8.50;99.90;;;;;;4162672;28;20037;-62
2023/04/26 07:32:29;;;;;;;11.10;8.23;;;8.50;99.90;;;;;;4163815;28;20034;-71
2023/04/26 07:34:30;;;;;;;10.83;6.63;;;8.40;99.90;;;;;;4162379;28;20030;-73
2023/04/26 07:36:31;;;;;;;10.67;6.67;;;8.40;99.90;;;;;;4163591;28;20033;-67
2023/04/26 07:38:32;;;;;;;10.20;7.20;;;8.40;99.90;;;;;;4162530;28;20111;-74
2023/04/26 07:40:34;;;;;;;11.93;7.60;;;8.30;99.90;;;;;;4163352;28;20029;-70
2023/04/26 07:42:35;;;;;;;9.97;7.13;;;8.40;99.90;;;;;;4162815;28;20033;-62
2023/04/26 07:44:36;;;;;;;9.43;7.23;;;8.30;99.90;;;;;;4163050;28;20017;-70
2023/04/26 07:46:37;;;;;;;11.30;7.17;;;8.30;99.90;;;;;;4162850;28;20034;-70
2023/04/26 07:48:38;;;;;;;12.70;7.37;;;8.30;99.90;;;;;;4145225;28;20030;-71
2023/04/26 07:50:40;;;;;;;8.20;6.77;;;8.30;99.90;;;;;;4163241;28;20038;-71
2023/04/26 07:52:42;;;;;;;11.13;7.73;;;8.30;99.90;;;;;;4162125;28;20132;-72
2023/04/26 07:54:45;;;;;;;10.03;6.90;;;8.30;99.90;;;;;;4162312;28;20099;-74
2023/04/26 07:56:46;;;;;;;14.70;7.57;;;8.40;99.90;;;;;;4161519;28;20021;-73
2023/04/26 07:58:47;;;;;;;9.73;7.77;;;8.40;99.90;;;;;;4163036;28;20870;-68
2023/04/26 08:00:49;;;;;;;13.80;7.47;;;8.50;99.90;;;;;;4162155;28;20060;-70
2023/04/26 08:02:50;;;;;;;11.47;7.87;;;8.50;99.90;;;;;;4163251;28;20033;-70
2023/04/26 08:04:53;;;;;;;11.37;7.50;;;8.50;99.90;;;;;;4161924;28;20507;-71
2023/04/26 08:06:55;;;;;;;12.93;7.40;;;8.50;99.90;;;;;;4162332;28;20567;-73
2023/04/26 08:08:56;;;;;;;9.27;7.43;;;8.50;99.90;;;;;;4161764;28;20029;-73
2023/04/26 08:10:58;;;;;;;9.87;7.03;;;8.50;99.90;;;;;;4162776;28;20072;-69
2023/04/26 08:13:02;;;;;;;14.57;7.80;;;8.40;99.90;;;;;;4161421;28;20381;-62
2023/04/26 08:15:04;;;;;;;11.03;7.63;;;8.50;99.90;;;;;;4162511;28;20029;-61
2023/04/26 08:17:08;;;;;;;10.40;7.47;;;8.40;99.90;;;;;;4161745;28;20436;-72
2023/04/26 08:19:09;;;;;;;12.00;7.17;;;8.40;99.90;;;;;;4162423;28;20466;-62
2023/04/26 08:21:10;;;;;;;13.07;7.93;;;8.40;99.90;;;;;;4162649;28;20170;-72
2023/04/26 08:23:11;;;;;;;10.30;7.27;;;8.50;99.90;;;;;;4161050;28;20107;-70
2023/04/26 08:25:12;;;;;;;10.73;7.63;;;8.50;99.90;;;;;;4162775;28;20581;-65
2023/04/26 08:27:13;;;;;;;11.67;7.43;;;8.50;99.90;;;;;;4161929;28;20033;-68
2023/04/26 08:29:15;;;;;;;13.93;7.23;;;8.50;99.90;;;;;;4162579;28;20591;-66
2023/04/26 08:31:16;;;;;;;9.23;6.97;;;8.50;99.90;;;;;;4161478;28;20075;-69
2023/04/26 08:33:18;;;;;;;11.10;7.40;;;8.50;99.90;;;;;;4161931;28;20107;-73
2023/04/26 08:35:20;;;;;;;9.73;7.93;;;8.50;99.90;;;;;;4161435;28;20514;-72
2023/04/26 08:37:21;;;;;;;14.57;7.60;;;8.50;99.90;;;;;;4144312;28;20088;-72
2023/04/26 08:39:23;;;;;;;11.17;7.77;;;8.50;99.90;;;;;;4161043;28;20474;-69
2023/04/26 08:41:25;;;;;;;19.83;8.50;;;8.50;99.90;;;;;;4162519;28;20087;-68
2023/04/26 08:43:27;;;;;;;9.57;7.97;;;8.60;99.90;;;;;;4160430;28;20087;-67
2023/04/26 08:45:28;;;;;;;10.33;7.60;;;8.60;99.90;;;;;;4162320;28;20080;-72
2023/04/26 08:47:51;;;;;;;11.43;8.37;;;8.50;99.90;;;;;;4161506;28;20071;-72
2023/04/26 08:49:58;;;;;;;9.90;7.13;;;8.50;99.90;;;;;;4162285;28;20053;-70
2023/04/26 08:52:00;;;;;;;10.83;7.43;;;8.40;99.90;;;;;;4161505;28;20038;-71
2023/04/26 08:54:03;;;;;;;10.70;7.00;;;8.40;99.90;;;;;;4162261;28;20022;-73
2023/04/26 08:56:07;;;;;;;10.20;7.20;;;8.50;99.90;;;;;;4161891;28;20048;-73
2023/04/26 08:58:10;;;;;;;10.53;7.33;;;8.50;99.90;;;;;;4161252;28;20049;-74
2023/04/26 09:00:12;;;;;;;10.50;7.43;;;8.60;99.90;;;;;;4161538;28;20457;-72
2023/04/26 09:02:17;;;;;;;13.73;7.40;;;8.60;99.90;;;;;;4161083;28;20545;-74
2023/04/26 09:04:18;;;;;;;11.03;7.53;;;8.70;99.90;;;;;;4161516;28;20053;-69
2023/04/26 09:06:20;;;;;;;9.47;7.40;;;8.70;99.90;;;;;;4160490;28;20115;-63
2023/04/26 09:08:22;;;;;;;8.23;6.50;;;8.70;99.90;;;;;;4161602;28;20535;-68
2023/04/26 09:10:23;;;;;;;13.30;8.00;;;8.70;99.90;;;;;;4160689;28;20045;-68
2023/04/26 09:12:25;;;;;;;8.47;6.60;;;8.70;99.90;;;;;;4144257;28;20034;-70
2023/04/26 09:14:26;;;;;;;12.33;6.77;;;8.70;99.90;;;;;;4160726;28;20075;-66
2023/04/26 09:16:35;;;;;;;11.47;7.20;;;8.70;99.90;;;;;;4161431;28;20095;-70
2023/04/26 09:18:49;;;;;;;11.03;7.37;;;8.70;99.90;;;;;;4161397;28;20052;-68
2023/04/26 09:21:06;;;;;;;10.50;6.53;;;8.80;99.90;;;;;;4161825;28;20025;-71
2023/04/26 09:23:09;;;;;;;9.23;6.87;;;8.80;99.90;;;;;;4160889;28;20083;-66
2023/04/26 09:25:12;;;;;;;15.60;7.63;;;8.90;99.90;;;;;;4161670;28;20041;-67
2023/04/26 09:27:15;;;;;;;10.53;7.17;;;8.90;99.90;;;;;;4160266;28;20502;-72
2023/04/26 09:29:17;;;;;;;8.23;6.87;;;9.00;99.90;;;;;;4144157;28;20030;-69
2023/04/26 09:31:39;;;;;;;10.37;6.60;;;9.00;99.90;;;;;;4160553;28;20095;-67
2023/04/26 09:33:59;;;;;;;10.17;6.70;;;9.10;99.90;;;;;;4161795;28;20021;-66
2023/04/26 09:36:12;;;;;;;9.85;6.50;;;9.10;99.90;;;;;;4160588;28;20541;-65
2023/04/26 09:38:15;;;;;;;8.77;6.67;;;9.10;99.90;;;;;;4143539;28;20119;-69
2023/04/26 09:40:20;;;;;;;8.30;6.00;;;9.10;99.90;;;;;;4160619;28;20171;-69
2023/04/26 09:42:22;;;;;;;10.37;6.53;;;9.20;99.90;;;;;;4161775;28;20029;-72
2023/04/26 09:44:24;;;;;;;11.07;6.67;;;9.20;99.90;;;;;;4160591;28;20030;-70
2023/04/26 09:46:25;;;;;;;12.17;6.60;;;9.30;99.90;;;;;;4161671;28;20078;-73
2023/04/26 09:48:33;;;;;;;9.43;6.03;;;9.40;99.90;;;;;;4160935;28;20548;-72
2023/04/26 09:50:34;;;;;;;11.17;8.03;;;9.40;99.90;;;;;;4161583;28;20029;-73
2023/04/26 09:52:43;;;;;;;9.00;6.37;;;9.50;99.90;;;;;;4160533;28;20441;-63
2023/04/26 09:54:53;;;;;;;8.27;6.43;;;9.50;99.90;;;;;;4160573;28;20041;-73
2023/04/26 09:57:02;;;;;;;7.75;6.22;;;9.60;99.90;;;;;;4160273;28;20072;-71
2023/04/26 09:59:07;;;;;;;10.97;5.80;;;9.80;99.90;;;;;;4161131;28;20034;-70
2023/04/26 10:01:10;;;;;;;8.83;5.60;;;9.90;99.90;;;;;;4160175;28;20021;-72
2023/04/26 10:03:12;;;;;;;8.37;5.33;;;10.00;99.90;;;;;;4160978;28;20048;-70
2023/04/26 10:05:14;;;;;;;7.27;5.40;;;10.10;99.90;;;;;;4160174;28;20547;-62
2023/04/26 10:07:17;;;;;;;7.87;4.73;;;10.20;99.90;;;;;;4159836;28;20045;-66
2023/04/26 10:09:18;;;;;;;8.47;4.83;;;10.40;99.90;;;;;;4160962;28;20512;-74
2023/04/26 10:11:20;;;;;;;7.50;4.90;;;10.30;99.90;;;;;;4160397;28;20029;-71
2023/04/26 10:13:22;;;;;;;10.90;4.87;;;10.40;99.90;;;;;;4161279;28;20098;-63
2023/04/26 10:15:23;;;;;;;7.47;4.60;;;10.50;99.90;;;;;;4160074;28;20076;-72
2023/04/26 10:17:24;;;;;;;10.63;5.30;;;10.50;99.90;;;;;;4160353;28;20049;-67
2023/04/26 10:19:26;;;;;;;8.83;5.07;;;10.70;99.90;;;;;;4162575;28;20076;-66
2023/04/26 10:21:32;;;;;;;8.07;5.13;;;10.70;99.90;;;;;;4166679;28;20038;-71
2023/04/26 10:23:34;;;;;;;7.07;4.77;;;10.80;99.90;;;;;;4165680;28;20139;-70
2023/04/26 10:25:37;;;;;;;7.80;4.90;;;10.80;99.90;;;;;;4166706;28;20555;-69
2023/04/26 10:27:44;;;;;;;5.17;4.30;;;10.80;99.90;;;;;;4165097;28;20099;-73
2023/04/26 10:29:54;;;;;;;11.03;5.33;;;10.80;99.90;;;;;;4166652;28;20033;-73
2023/04/26 10:32:01;;;;;;;8.93;4.80;;;10.70;99.90;;;;;;4165336;28;20025;-70
2023/04/26 10:34:19;;;;;;;7.13;4.43;;;10.90;99.90;;;;;;4166682;28;20045;-69
2023/04/26 10:36:21;;;;;;;9.47;4.37;;;11.10;99.90;;;;;;4165099;28;20049;-71
2023/04/26 10:38:22;;;;;;;13.13;4.63;;;11.10;99.90;;;;;;4166227;28;20103;-75
2023/04/26 10:40:25;;;;;;;6.00;3.83;;;11.20;99.90;;;;;;4165203;28;20041;-75
2023/04/26 10:42:29;;;;;;;9.53;3.63;;;11.20;99.90;;;;;;4166553;28;20029;-73